sensor_id;sensor_type;location;lat;lon;timestamp;P1;durP1;ratioP1;P2;durP2;ratioP2
81006;SDS011;70472;47.592;17.640;2023-09-30T00:00:27;9.47;;;9.47;;
81006;SDS011;70472;47.592;17.640;2023-09-30T00:01:00;9.27;;;9.27;;
81006;SDS011;70472;47.592;17.640;2023-09-30T00:01:33;8.93;;;8.93;;
81006;SDS011;70472;47.592;17.640;2023-09-30T00:02:05;8.60;;;8.60;;
81006;SDS011;70472;47.592;17.640;2023-09-30T00:02:38;8.27;;;8.27;;
81006;SDS011;70472;47.592;17.640;2023-09-30T00:03:10;9.43;;;9.43;;
81006;SDS011;70472;47.592;17.640;2023-09-30T00:03:43;10.30;;;10.30;;
81006;SDS011;70472;47.592;17.640;2023-09-30T00:04:15;9.53;;;9.53;;
81006;SDS011;70472;47.592;17.640;2023-09-30T00:04:47;8.63;;;8.63;;
81006;SDS011;70472;47.592;17.640;2023-09-30T00:05:20;8.57;;;8.57;;
81006;SDS011;70472;47.592;17.640;2023-09-30T00:05:52;9.17;;;9.17;;
81006;SDS011;70472;47.592;17.640;2023-09-30T00:06:25;9.07;;;9.07;;
81006;SDS011;70472;47.592;17.640;2023-09-30T00:06:57;9.07;;;9.07;;
81006;SDS011;70472;47.592;17.640;2023-09-30T00:07:30;9.23;;;9.23;;
81006;SDS011;70472;47.592;17.640;2023-09-30T00:08:03;9.60;;;9.60;;
81006;SDS011;70472;47.592;17.640;2023-09-30T00:08:36;9.60;;;9.60;;
81006;SDS011;70472;47.592;17.640;2023-09-30T00:09:09;9.30;;;9.30;;
81006;SDS011;70472;47.592;17.640;2023-09-30T00:09:41;8.97;;;8.97;;
81006;SDS011;70472;47.592;17.640;2023-09-30T00:10:14;8.97;;;8.97;;
81006;SDS011;70472;47.592;17.640;2023-09-30T00:10:47;9.17;;;9.17;;
81006;SDS011;70472;47.592;17.640;2023-09-30T00:11:19;9.20;;;9.20;;
81006;SDS011;70472;47.592;17.640;2023-09-30T00:11:52;9.33;;;9.33;;
81006;SDS011;70472;47.592;17.640;2023-09-30T00:12:24;9.23;;;9.23;;
81006;SDS011;70472;47.592;17.640;2023-09-30T00:12:57;9.37;;;9.37;;
81006;SDS011;70472;47.592;17.640;2023-09-30T00:13:30;9.70;;;9.70;;
81006;SDS011;70472;47.592;17.640;2023-09-30T00:14:02;9.13;;;9.13;;
81006;SDS011;70472;47.592;17.640;2023-09-30T00:14:35;9.63;;;9.63;;
81006;SDS011;70472;47.592;17.640;2023-09-30T00:15:07;9.53;;;9.53;;
81006;SDS011;70472;47.592;17.640;2023-09-30T00:15:40;9.43;;;9.43;;
81006;SDS011;70472;47.592;17.640;2023-09-30T00:16:13;9.57;;;9.57;;
81006;SDS011;70472;47.592;17.640;2023-09-30T00:16:45;9.20;;;9.20;;
81006;SDS011;70472;47.592;17.640;2023-09-30T00:17:18;8.90;;;8.90;;
81006;SDS011;70472;47.592;17.640;2023-09-30T00:17:50;9.63;;;9.63;;
81006;SDS011;70472;47.592;17.640;2023-09-30T00:18:23;8.90;;;8.90;;
81006;SDS011;70472;47.592;17.640;2023-09-30T00:18:55;8.67;;;8.67;;
81006;SDS011;70472;47.592;17.640;2023-09-30T00:19:28;8.70;;;8.70;;
81006;SDS011;70472;47.592;17.640;2023-09-30T00:20:00;8.70;;;8.70;;
81006;SDS011;70472;47.592;17.640;2023-09-30T00:20:33;8.87;;;8.87;;
81006;SDS011;70472;47.592;17.640;2023-09-30T00:21:05;8.77;;;8.77;;
81006;SDS011;70472;47.592;17.640;2023-09-30T00:21:37;8.03;;;8.03;;
81006;SDS011;70472;47.592;17.640;2023-09-30T00:22:10;8.93;;;8.93;;
81006;SDS011;70472;47.592;17.640;2023-09-30T00:22:43;9.20;;;9.20;;
81006;SDS011;70472;47.592;17.640;2023-09-30T00:23:16;8.60;;;8.60;;
81006;SDS011;70472;47.592;17.640;2023-09-30T00:23:50;8.90;;;8.90;;
81006;SDS011;70472;47.592;17.640;2023-09-30T00:24:22;9.13;;;9.13;;
81006;SDS011;70472;47.592;17.640;2023-09-30T00:24:55;8.33;;;8.33;;
81006;SDS011;70472;47.592;17.640;2023-09-30T00:25:27;8.33;;;8.33;;
81006;SDS011;70472;47.592;17.640;2023-09-30T00:26:00;9.03;;;9.03;;
81006;SDS011;70472;47.592;17.640;2023-09-30T00:26:32;8.93;;;8.93;;
81006;SDS011;70472;47.592;17.640;2023-09-30T00:27:05;9.47;;;9.47;;
81006;SDS011;70472;47.592;17.640;2023-09-30T00:27:38;9.50;;;9.50;;
81006;SDS011;70472;47.592;17.640;2023-09-30T00:28:10;9.60;;;9.60;;
81006;SDS011;70472;47.592;17.640;2023-09-30T00:28:44;8.13;;;8.13;;
81006;SDS011;70472;47.592;17.640;2023-09-30T00:29:16;8.27;;;8.27;;
81006;SDS011;70472;47.592;17.640;2023-09-30T00:29:49;9.20;;;9.20;;
81006;SDS011;70472;47.592;17.640;2023-09-30T00:30:22;9.13;;;9.13;;
81006;SDS011;70472;47.592;17.640;2023-09-30T00:30:54;9.27;;;9.27;;
81006;SDS011;70472;47.592;17.640;2023-09-30T00:31:27;9.27;;;9.27;;
81006;SDS011;70472;47.592;17.640;2023-09-30T00:31:59;8.63;;;8.63;;
81006;SDS011;70472;47.592;17.640;2023-09-30T00:32:31;8.87;;;8.87;;
81006;SDS011;70472;47.592;17.640;2023-09-30T00:33:04;9.13;;;9.13;;
81006;SDS011;70472;47.592;17.640;2023-09-30T00:33:37;9.97;;;9.97;;
81006;SDS011;70472;47.592;17.640;2023-09-30T00:34:09;8.87;;;8.87;;
81006;SDS011;70472;47.592;17.640;2023-09-30T00:34:42;8.67;;;8.67;;
81006;SDS011;70472;47.592;17.640;2023-09-30T00:35:15;8.80;;;8.80;;
81006;SDS011;70472;47.592;17.640;2023-09-30T00:35:47;9.03;;;9.03;;
81006;SDS011;70472;47.592;17.640;2023-09-30T00:36:19;9.73;;;9.73;;
81006;SDS011;70472;47.592;17.640;2023-09-30T00:36:52;8.37;;;8.37;;
81006;SDS011;70472;47.592;17.640;2023-09-30T00:37:24;8.73;;;8.73;;
81006;SDS011;70472;47.592;17.640;2023-09-30T00:37:57;9.03;;;9.03;;
81006;SDS011;70472;47.592;17.640;2023-09-30T00:38:29;9.03;;;9.03;;
81006;SDS011;70472;47.592;17.640;2023-09-30T00:39:02;9.03;;;9.03;;
81006;SDS011;70472;47.592;17.640;2023-09-30T00:39:35;9.10;;;9.10;;
81006;SDS011;70472;47.592;17.640;2023-09-30T00:40:08;9.27;;;9.27;;
81006;SDS011;70472;47.592;17.640;2023-09-30T00:40:47;8.73;;;8.73;;
81006;SDS011;70472;47.592;17.640;2023-09-30T00:41:21;8.73;;;8.73;;
81006;SDS011;70472;47.592;17.640;2023-09-30T00:41:54;8.90;;;8.90;;
81006;SDS011;70472;47.592;17.640;2023-09-30T00:42:26;9.10;;;9.10;;
81006;SDS011;70472;47.592;17.640;2023-09-30T00:42:59;8.80;;;8.80;;
81006;SDS011;70472;47.592;17.640;2023-09-30T00:43:31;9.00;;;9.00;;
81006;SDS011;70472;47.592;17.640;2023-09-30T00:44:05;8.83;;;8.83;;
81006;SDS011;70472;47.592;17.640;2023-09-30T00:44:37;8.93;;;8.93;;
81006;SDS011;70472;47.592;17.640;2023-09-30T00:45:10;8.17;;;8.17;;
81006;SDS011;70472;47.592;17.640;2023-09-30T00:45:43;8.60;;;8.60;;
81006;SDS011;70472;47.592;17.640;2023-09-30T00:47:04;8.90;;;8.90;;
81006;SDS011;70472;47.592;17.640;2023-09-30T00:47:37;9.43;;;9.43;;
81006;SDS011;70472;47.592;17.640;2023-09-30T00:48:10;9.37;;;9.37;;
81006;SDS011;70472;47.592;17.640;2023-09-30T00:48:43;9.17;;;9.17;;
81006;SDS011;70472;47.592;17.640;2023-09-30T00:49:16;8.83;;;8.83;;
81006;SDS011;70472;47.592;17.640;2023-09-30T00:49:50;9.17;;;9.17;;
81006;SDS011;70472;47.592;17.640;2023-09-30T00:50:26;9.70;;;9.70;;
81006;SDS011;70472;47.592;17.640;2023-09-30T00:50:58;9.60;;;9.60;;
81006;SDS011;70472;47.592;17.640;2023-09-30T00:51:31;8.67;;;8.67;;
81006;SDS011;70472;47.592;17.640;2023-09-30T00:52:05;8.70;;;8.70;;
81006;SDS011;70472;47.592;17.640;2023-09-30T00:52:38;9.07;;;9.07;;
81006;SDS011;70472;47.592;17.640;2023-09-30T00:53:11;8.67;;;8.67;;
81006;SDS011;70472;47.592;17.640;2023-09-30T00:53:44;8.83;;;8.83;;
81006;SDS011;70472;47.592;17.640;2023-09-30T00:54:17;9.10;;;9.10;;
81006;SDS011;70472;47.592;17.640;2023-09-30T00:54:50;8.77;;;8.77;;
81006;SDS011;70472;47.592;17.640;2023-09-30T00:55:26;8.80;;;8.80;;
81006;SDS011;70472;47.592;17.640;2023-09-30T00:55:59;9.53;;;9.53;;
81006;SDS011;70472;47.592;17.640;2023-09-30T00:56:32;8.93;;;8.93;;
81006;SDS011;70472;47.592;17.640;2023-09-30T00:57:06;8.93;;;8.93;;
81006;SDS011;70472;47.592;17.640;2023-09-30T00:57:39;9.07;;;9.07;;
81006;SDS011;70472;47.592;17.640;2023-09-30T00:58:11;8.50;;;8.50;;
81006;SDS011;70472;47.592;17.640;2023-09-30T00:58:45;9.03;;;9.03;;
81006;SDS011;70472;47.592;17.640;2023-09-30T00:59:19;8.63;;;8.63;;
81006;SDS011;70472;47.592;17.640;2023-09-30T00:59:52;9.53;;;9.53;;
81006;SDS011;70472;47.592;17.640;2023-09-30T01:00:24;9.30;;;9.30;;
81006;SDS011;70472;47.592;17.640;2023-09-30T01:00:57;8.93;;;8.93;;
81006;SDS011;70472;47.592;17.640;2023-09-30T01:01:31;9.50;;;9.50;;
81006;SDS011;70472;47.592;17.640;2023-09-30T01:02:05;9.67;;;9.67;;
81006;SDS011;70472;47.592;17.640;2023-09-30T01:02:39;8.90;;;8.90;;
81006;SDS011;70472;47.592;17.640;2023-09-30T01:03:12;8.80;;;8.80;;
81006;SDS011;70472;47.592;17.640;2023-09-30T01:03:47;9.13;;;9.13;;
81006;SDS011;70472;47.592;17.640;2023-09-30T01:04:20;8.30;;;8.30;;
81006;SDS011;70472;47.592;17.640;2023-09-30T01:04:53;7.97;;;7.97;;
81006;SDS011;70472;47.592;17.640;2023-09-30T01:05:27;9.00;;;9.00;;
81006;SDS011;70472;47.592;17.640;2023-09-30T01:06:02;8.93;;;8.93;;
81006;SDS011;70472;47.592;17.640;2023-09-30T01:06:34;9.63;;;9.63;;
81006;SDS011;70472;47.592;17.640;2023-09-30T01:07:07;9.27;;;9.27;;
81006;SDS011;70472;47.592;17.640;2023-09-30T01:07:39;9.13;;;9.13;;
81006;SDS011;70472;47.592;17.640;2023-09-30T01:08:12;9.63;;;9.63;;
81006;SDS011;70472;47.592;17.640;2023-09-30T01:08:45;9.13;;;9.13;;
81006;SDS011;70472;47.592;17.640;2023-09-30T01:09:17;8.93;;;8.93;;
81006;SDS011;70472;47.592;17.640;2023-09-30T01:09:51;8.83;;;8.83;;
81006;SDS011;70472;47.592;17.640;2023-09-30T01:10:24;9.10;;;9.10;;
81006;SDS011;70472;47.592;17.640;2023-09-30T01:10:56;9.23;;;9.23;;
81006;SDS011;70472;47.592;17.640;2023-09-30T01:11:30;9.23;;;9.23;;
81006;SDS011;70472;47.592;17.640;2023-09-30T01:12:02;9.20;;;9.20;;
81006;SDS011;70472;47.592;17.640;2023-09-30T01:12:35;8.57;;;8.57;;
81006;SDS011;70472;47.592;17.640;2023-09-30T01:13:08;8.67;;;8.67;;
81006;SDS011;70472;47.592;17.640;2023-09-30T01:13:41;8.53;;;8.53;;
81006;SDS011;70472;47.592;17.640;2023-09-30T01:15:03;8.60;;;8.60;;
81006;SDS011;70472;47.592;17.640;2023-09-30T01:15:37;9.00;;;9.00;;
81006;SDS011;70472;47.592;17.640;2023-09-30T01:16:09;8.63;;;8.63;;
81006;SDS011;70472;47.592;17.640;2023-09-30T01:16:42;9.30;;;9.30;;
81006;SDS011;70472;47.592;17.640;2023-09-30T01:17:14;8.80;;;8.80;;
81006;SDS011;70472;47.592;17.640;2023-09-30T01:17:47;8.70;;;8.70;;
81006;SDS011;70472;47.592;17.640;2023-09-30T01:18:19;8.77;;;8.77;;
81006;SDS011;70472;47.592;17.640;2023-09-30T01:18:53;8.63;;;8.63;;
81006;SDS011;70472;47.592;17.640;2023-09-30T01:19:25;9.43;;;9.43;;
81006;SDS011;70472;47.592;17.640;2023-09-30T01:19:58;8.93;;;8.93;;
81006;SDS011;70472;47.592;17.640;2023-09-30T01:20:31;8.67;;;8.67;;
81006;SDS011;70472;47.592;17.640;2023-09-30T01:21:04;9.13;;;9.13;;
81006;SDS011;70472;47.592;17.640;2023-09-30T01:21:38;9.40;;;9.40;;
81006;SDS011;70472;47.592;17.640;2023-09-30T01:22:11;9.03;;;9.03;;
81006;SDS011;70472;47.592;17.640;2023-09-30T01:22:44;9.00;;;9.00;;
81006;SDS011;70472;47.592;17.640;2023-09-30T01:23:16;8.67;;;8.67;;
81006;SDS011;70472;47.592;17.640;2023-09-30T01:23:48;8.57;;;8.57;;
81006;SDS011;70472;47.592;17.640;2023-09-30T01:24:21;8.20;;;8.20;;
81006;SDS011;70472;47.592;17.640;2023-09-30T01:24:54;8.33;;;8.33;;
81006;SDS011;70472;47.592;17.640;2023-09-30T01:25:27;9.60;;;9.60;;
81006;SDS011;70472;47.592;17.640;2023-09-30T01:26:03;9.23;;;9.23;;
81006;SDS011;70472;47.592;17.640;2023-09-30T01:26:45;8.40;;;8.40;;
81006;SDS011;70472;47.592;17.640;2023-09-30T01:27:17;8.63;;;8.63;;
81006;SDS011;70472;47.592;17.640;2023-09-30T01:27:50;9.17;;;9.17;;
81006;SDS011;70472;47.592;17.640;2023-09-30T01:28:23;8.73;;;8.73;;
81006;SDS011;70472;47.592;17.640;2023-09-30T01:28:55;8.53;;;8.53;;
81006;SDS011;70472;47.592;17.640;2023-09-30T01:29:28;9.60;;;9.60;;
81006;SDS011;70472;47.592;17.640;2023-09-30T01:30:00;9.53;;;9.53;;
81006;SDS011;70472;47.592;17.640;2023-09-30T01:30:33;8.97;;;8.97;;
81006;SDS011;70472;47.592;17.640;2023-09-30T01:31:07;10.07;;;10.07;;
81006;SDS011;70472;47.592;17.640;2023-09-30T01:31:39;9.33;;;9.33;;
81006;SDS011;70472;47.592;17.640;2023-09-30T01:32:12;8.80;;;8.80;;
81006;SDS011;70472;47.592;17.640;2023-09-30T01:32:44;9.57;;;9.57;;
81006;SDS011;70472;47.592;17.640;2023-09-30T01:33:17;10.17;;;10.17;;
81006;SDS011;70472;47.592;17.640;2023-09-30T01:33:49;9.00;;;9.00;;
81006;SDS011;70472;47.592;17.640;2023-09-30T01:34:21;9.40;;;9.40;;
81006;SDS011;70472;47.592;17.640;2023-09-30T01:34:54;9.00;;;9.00;;
81006;SDS011;70472;47.592;17.640;2023-09-30T01:35:27;8.43;;;8.43;;
81006;SDS011;70472;47.592;17.640;2023-09-30T01:35:59;8.40;;;8.40;;
81006;SDS011;70472;47.592;17.640;2023-09-30T01:36:32;8.70;;;8.70;;
81006;SDS011;70472;47.592;17.640;2023-09-30T01:37:04;8.87;;;8.87;;
81006;SDS011;70472;47.592;17.640;2023-09-30T01:37:37;8.83;;;8.83;;
81006;SDS011;70472;47.592;17.640;2023-09-30T01:38:09;9.73;;;9.73;;
81006;SDS011;70472;47.592;17.640;2023-09-30T01:38:42;11.00;;;11.00;;
81006;SDS011;70472;47.592;17.640;2023-09-30T01:39:15;9.53;;;9.53;;
81006;SDS011;70472;47.592;17.640;2023-09-30T01:39:47;9.10;;;9.10;;
81006;SDS011;70472;47.592;17.640;2023-09-30T01:40:20;9.33;;;9.33;;
81006;SDS011;70472;47.592;17.640;2023-09-30T01:40:52;8.83;;;8.83;;
81006;SDS011;70472;47.592;17.640;2023-09-30T01:41:25;8.87;;;8.87;;
81006;SDS011;70472;47.592;17.640;2023-09-30T01:41:57;9.10;;;9.10;;
81006;SDS011;70472;47.592;17.640;2023-09-30T01:42:29;9.07;;;9.07;;
81006;SDS011;70472;47.592;17.640;2023-09-30T01:43:02;9.20;;;9.20;;
81006;SDS011;70472;47.592;17.640;2023-09-30T01:43:36;8.80;;;8.80;;
81006;SDS011;70472;47.592;17.640;2023-09-30T01:44:09;9.07;;;9.07;;
81006;SDS011;70472;47.592;17.640;2023-09-30T01:44:41;9.17;;;9.17;;
81006;SDS011;70472;47.592;17.640;2023-09-30T01:45:14;9.30;;;9.30;;
81006;SDS011;70472;47.592;17.640;2023-09-30T01:45:46;9.27;;;9.27;;
81006;SDS011;70472;47.592;17.640;2023-09-30T01:46:19;8.63;;;8.63;;
81006;SDS011;70472;47.592;17.640;2023-09-30T01:46:51;7.93;;;7.93;;
81006;SDS011;70472;47.592;17.640;2023-09-30T01:47:24;8.00;;;8.00;;
81006;SDS011;70472;47.592;17.640;2023-09-30T01:47:56;8.47;;;8.47;;
81006;SDS011;70472;47.592;17.640;2023-09-30T01:48:28;9.27;;;9.27;;
81006;SDS011;70472;47.592;17.640;2023-09-30T01:49:01;9.87;;;9.87;;
81006;SDS011;70472;47.592;17.640;2023-09-30T01:49:33;9.80;;;9.80;;
81006;SDS011;70472;47.592;17.640;2023-09-30T01:50:06;9.93;;;9.93;;
81006;SDS011;70472;47.592;17.640;2023-09-30T01:50:40;9.60;;;9.60;;
81006;SDS011;70472;47.592;17.640;2023-09-30T01:51:12;9.63;;;9.63;;
81006;SDS011;70472;47.592;17.640;2023-09-30T01:51:45;9.20;;;9.20;;
81006;SDS011;70472;47.592;17.640;2023-09-30T01:52:17;9.00;;;9.00;;
81006;SDS011;70472;47.592;17.640;2023-09-30T01:52:50;9.00;;;9.00;;
81006;SDS011;70472;47.592;17.640;2023-09-30T01:53:22;9.03;;;9.03;;
81006;SDS011;70472;47.592;17.640;2023-09-30T01:53:58;8.87;;;8.87;;
81006;SDS011;70472;47.592;17.640;2023-09-30T01:54:30;10.00;;;10.00;;
81006;SDS011;70472;47.592;17.640;2023-09-30T01:55:03;9.23;;;9.23;;
81006;SDS011;70472;47.592;17.640;2023-09-30T01:55:36;8.37;;;8.37;;
81006;SDS011;70472;47.592;17.640;2023-09-30T01:56:08;8.87;;;8.87;;
81006;SDS011;70472;47.592;17.640;2023-09-30T01:56:41;8.90;;;8.90;;
81006;SDS011;70472;47.592;17.640;2023-09-30T01:57:13;8.60;;;8.60;;
81006;SDS011;70472;47.592;17.640;2023-09-30T01:57:46;8.23;;;8.23;;
81006;SDS011;70472;47.592;17.640;2023-09-30T01:58:19;8.43;;;8.43;;
81006;SDS011;70472;47.592;17.640;2023-09-30T01:58:52;8.53;;;8.53;;
81006;SDS011;70472;47.592;17.640;2023-09-30T01:59:25;9.67;;;9.67;;
81006;SDS011;70472;47.592;17.640;2023-09-30T01:59:57;9.43;;;9.43;;
81006;SDS011;70472;47.592;17.640;2023-09-30T02:00:30;9.23;;;9.23;;
81006;SDS011;70472;47.592;17.640;2023-09-30T02:01:05;9.37;;;9.37;;
81006;SDS011;70472;47.592;17.640;2023-09-30T02:01:38;9.20;;;9.20;;
81006;SDS011;70472;47.592;17.640;2023-09-30T02:02:10;8.90;;;8.90;;
81006;SDS011;70472;47.592;17.640;2023-09-30T02:02:43;9.77;;;9.77;;
81006;SDS011;70472;47.592;17.640;2023-09-30T02:03:15;9.03;;;9.03;;
81006;SDS011;70472;47.592;17.640;2023-09-30T02:03:48;8.50;;;8.50;;
81006;SDS011;70472;47.592;17.640;2023-09-30T02:04:20;9.80;;;9.80;;
81006;SDS011;70472;47.592;17.640;2023-09-30T02:04:53;9.47;;;9.47;;
81006;SDS011;70472;47.592;17.640;2023-09-30T02:05:25;9.70;;;9.70;;
81006;SDS011;70472;47.592;17.640;2023-09-30T02:05:58;9.80;;;9.80;;
81006;SDS011;70472;47.592;17.640;2023-09-30T02:06:30;9.63;;;9.63;;
81006;SDS011;70472;47.592;17.640;2023-09-30T02:07:02;8.50;;;8.50;;
81006;SDS011;70472;47.592;17.640;2023-09-30T02:07:35;9.53;;;9.53;;
81006;SDS011;70472;47.592;17.640;2023-09-30T02:08:07;9.30;;;9.30;;
81006;SDS011;70472;47.592;17.640;2023-09-30T02:08:41;9.43;;;9.43;;
81006;SDS011;70472;47.592;17.640;2023-09-30T02:09:13;8.67;;;8.67;;
81006;SDS011;70472;47.592;17.640;2023-09-30T02:09:46;9.03;;;9.03;;
81006;SDS011;70472;47.592;17.640;2023-09-30T02:10:19;9.73;;;9.73;;
81006;SDS011;70472;47.592;17.640;2023-09-30T02:10:52;9.00;;;9.00;;
81006;SDS011;70472;47.592;17.640;2023-09-30T02:11:26;9.83;;;9.83;;
81006;SDS011;70472;47.592;17.640;2023-09-30T02:11:58;9.80;;;9.80;;
81006;SDS011;70472;47.592;17.640;2023-09-30T02:12:30;9.97;;;9.97;;
81006;SDS011;70472;47.592;17.640;2023-09-30T02:13:03;8.93;;;8.93;;
81006;SDS011;70472;47.592;17.640;2023-09-30T02:13:35;9.23;;;9.23;;
81006;SDS011;70472;47.592;17.640;2023-09-30T02:14:09;10.17;;;10.17;;
81006;SDS011;70472;47.592;17.640;2023-09-30T02:14:43;10.23;;;10.23;;
81006;SDS011;70472;47.592;17.640;2023-09-30T02:15:16;9.77;;;9.77;;
81006;SDS011;70472;47.592;17.640;2023-09-30T02:15:48;9.57;;;9.57;;
81006;SDS011;70472;47.592;17.640;2023-09-30T02:16:21;9.80;;;9.80;;
81006;SDS011;70472;47.592;17.640;2023-09-30T02:16:53;9.73;;;9.73;;
81006;SDS011;70472;47.592;17.640;2023-09-30T02:17:26;9.97;;;9.97;;
81006;SDS011;70472;47.592;17.640;2023-09-30T02:17:58;10.30;;;10.30;;
81006;SDS011;70472;47.592;17.640;2023-09-30T02:18:30;10.30;;;10.30;;
81006;SDS011;70472;47.592;17.640;2023-09-30T02:19:03;9.30;;;9.30;;
81006;SDS011;70472;47.592;17.640;2023-09-30T02:19:35;9.67;;;9.67;;
81006;SDS011;70472;47.592;17.640;2023-09-30T02:20:08;9.77;;;9.77;;
81006;SDS011;70472;47.592;17.640;2023-09-30T02:20:42;9.83;;;9.83;;
81006;SDS011;70472;47.592;17.640;2023-09-30T02:21:15;10.77;;;10.77;;
81006;SDS011;70472;47.592;17.640;2023-09-30T02:21:47;10.70;;;10.70;;
81006;SDS011;70472;47.592;17.640;2023-09-30T02:22:21;10.33;;;10.33;;
81006;SDS011;70472;47.592;17.640;2023-09-30T02:22:53;10.50;;;10.50;;
81006;SDS011;70472;47.592;17.640;2023-09-30T02:23:27;10.80;;;10.80;;
81006;SDS011;70472;47.592;17.640;2023-09-30T02:23:59;9.83;;;9.83;;
81006;SDS011;70472;47.592;17.640;2023-09-30T02:24:32;9.83;;;9.83;;
81006;SDS011;70472;47.592;17.640;2023-09-30T02:25:05;9.73;;;9.73;;
81006;SDS011;70472;47.592;17.640;2023-09-30T02:25:39;9.80;;;9.80;;
81006;SDS011;70472;47.592;17.640;2023-09-30T02:26:11;9.57;;;9.57;;
81006;SDS011;70472;47.592;17.640;2023-09-30T02:26:44;10.13;;;10.13;;
81006;SDS011;70472;47.592;17.640;2023-09-30T02:27:16;9.87;;;9.87;;
81006;SDS011;70472;47.592;17.640;2023-09-30T02:27:49;9.53;;;9.53;;
81006;SDS011;70472;47.592;17.640;2023-09-30T02:28:22;9.57;;;9.57;;
81006;SDS011;70472;47.592;17.640;2023-09-30T02:28:54;9.73;;;9.73;;
81006;SDS011;70472;47.592;17.640;2023-09-30T02:29:27;9.73;;;9.73;;
81006;SDS011;70472;47.592;17.640;2023-09-30T02:29:59;9.87;;;9.87;;
81006;SDS011;70472;47.592;17.640;2023-09-30T02:30:32;10.30;;;10.30;;
81006;SDS011;70472;47.592;17.640;2023-09-30T02:31:05;9.57;;;9.57;;
81006;SDS011;70472;47.592;17.640;2023-09-30T02:31:37;9.90;;;9.90;;
81006;SDS011;70472;47.592;17.640;2023-09-30T02:32:11;9.87;;;9.87;;
81006;SDS011;70472;47.592;17.640;2023-09-30T02:32:43;9.40;;;9.40;;
81006;SDS011;70472;47.592;17.640;2023-09-30T02:33:15;9.43;;;9.43;;
81006;SDS011;70472;47.592;17.640;2023-09-30T02:33:48;8.73;;;8.73;;
81006;SDS011;70472;47.592;17.640;2023-09-30T02:34:21;9.33;;;9.33;;
81006;SDS011;70472;47.592;17.640;2023-09-30T02:34:54;9.73;;;9.73;;
81006;SDS011;70472;47.592;17.640;2023-09-30T02:35:26;9.43;;;9.43;;
81006;SDS011;70472;47.592;17.640;2023-09-30T02:35:59;9.73;;;9.73;;
81006;SDS011;70472;47.592;17.640;2023-09-30T02:36:32;9.90;;;9.90;;
81006;SDS011;70472;47.592;17.640;2023-09-30T02:37:05;9.67;;;9.67;;
81006;SDS011;70472;47.592;17.640;2023-09-30T02:37:37;10.43;;;10.43;;
81006;SDS011;70472;47.592;17.640;2023-09-30T02:38:10;10.27;;;10.27;;
81006;SDS011;70472;47.592;17.640;2023-09-30T02:38:43;9.87;;;9.87;;
81006;SDS011;70472;47.592;17.640;2023-09-30T02:39:15;10.17;;;10.17;;
81006;SDS011;70472;47.592;17.640;2023-09-30T02:39:48;9.63;;;9.63;;
81006;SDS011;70472;47.592;17.640;2023-09-30T02:40:20;9.60;;;9.60;;
81006;SDS011;70472;47.592;17.640;2023-09-30T02:40:55;9.43;;;9.43;;
81006;SDS011;70472;47.592;17.640;2023-09-30T02:41:28;10.20;;;10.20;;
81006;SDS011;70472;47.592;17.640;2023-09-30T02:42:01;10.10;;;10.10;;
81006;SDS011;70472;47.592;17.640;2023-09-30T02:42:33;10.13;;;10.13;;
81006;SDS011;70472;47.592;17.640;2023-09-30T02:43:05;9.80;;;9.80;;
81006;SDS011;70472;47.592;17.640;2023-09-30T02:43:38;9.97;;;9.97;;
81006;SDS011;70472;47.592;17.640;2023-09-30T02:44:10;9.57;;;9.57;;
81006;SDS011;70472;47.592;17.640;2023-09-30T02:44:43;9.83;;;9.83;;
81006;SDS011;70472;47.592;17.640;2023-09-30T02:45:15;10.97;;;10.97;;
81006;SDS011;70472;47.592;17.640;2023-09-30T02:45:49;9.97;;;9.97;;
81006;SDS011;70472;47.592;17.640;2023-09-30T02:46:21;9.77;;;9.77;;
81006;SDS011;70472;47.592;17.640;2023-09-30T02:46:54;9.50;;;9.50;;
81006;SDS011;70472;47.592;17.640;2023-09-30T02:47:26;10.03;;;10.03;;
81006;SDS011;70472;47.592;17.640;2023-09-30T02:48:00;9.80;;;9.80;;
81006;SDS011;70472;47.592;17.640;2023-09-30T02:48:32;8.80;;;8.80;;
81006;SDS011;70472;47.592;17.640;2023-09-30T02:49:05;8.40;;;8.40;;
81006;SDS011;70472;47.592;17.640;2023-09-30T02:49:38;9.07;;;9.07;;
81006;SDS011;70472;47.592;17.640;2023-09-30T02:50:10;9.73;;;9.73;;
81006;SDS011;70472;47.592;17.640;2023-09-30T02:50:43;9.87;;;9.87;;
81006;SDS011;70472;47.592;17.640;2023-09-30T02:51:15;9.73;;;9.73;;
81006;SDS011;70472;47.592;17.640;2023-09-30T02:51:48;10.00;;;10.00;;
81006;SDS011;70472;47.592;17.640;2023-09-30T02:52:20;9.30;;;9.30;;
81006;SDS011;70472;47.592;17.640;2023-09-30T02:52:52;9.50;;;9.50;;
81006;SDS011;70472;47.592;17.640;2023-09-30T02:53:25;9.63;;;9.63;;
81006;SDS011;70472;47.592;17.640;2023-09-30T02:53:57;10.80;;;10.80;;
81006;SDS011;70472;47.592;17.640;2023-09-30T02:54:30;9.93;;;9.93;;
81006;SDS011;70472;47.592;17.640;2023-09-30T02:55:03;9.80;;;9.80;;
81006;SDS011;70472;47.592;17.640;2023-09-30T02:55:36;10.60;;;10.60;;
81006;SDS011;70472;47.592;17.640;2023-09-30T02:56:08;10.43;;;10.43;;
81006;SDS011;70472;47.592;17.640;2023-09-30T02:56:43;10.17;;;10.17;;
81006;SDS011;70472;47.592;17.640;2023-09-30T02:57:17;10.73;;;10.73;;
81006;SDS011;70472;47.592;17.640;2023-09-30T02:57:50;10.37;;;10.37;;
81006;SDS011;70472;47.592;17.640;2023-09-30T02:58:23;9.83;;;9.83;;
81006;SDS011;70472;47.592;17.640;2023-09-30T02:58:57;10.70;;;10.70;;
81006;SDS011;70472;47.592;17.640;2023-09-30T02:59:30;10.07;;;10.07;;
81006;SDS011;70472;47.592;17.640;2023-09-30T03:00:03;10.83;;;10.83;;
81006;SDS011;70472;47.592;17.640;2023-09-30T03:00:40;11.23;;;11.23;;
81006;SDS011;70472;47.592;17.640;2023-09-30T03:01:14;10.67;;;10.67;;
81006;SDS011;70472;47.592;17.640;2023-09-30T03:01:47;10.80;;;10.80;;
81006;SDS011;70472;47.592;17.640;2023-09-30T03:02:20;10.33;;;10.33;;
81006;SDS011;70472;47.592;17.640;2023-09-30T03:02:54;10.27;;;10.27;;
81006;SDS011;70472;47.592;17.640;2023-09-30T03:03:27;10.30;;;10.30;;
81006;SDS011;70472;47.592;17.640;2023-09-30T03:04:00;10.77;;;10.77;;
81006;SDS011;70472;47.592;17.640;2023-09-30T03:04:32;10.03;;;10.03;;
81006;SDS011;70472;47.592;17.640;2023-09-30T03:05:05;9.53;;;9.53;;
81006;SDS011;70472;47.592;17.640;2023-09-30T03:05:38;9.23;;;9.23;;
81006;SDS011;70472;47.592;17.640;2023-09-30T03:06:10;9.57;;;9.57;;
81006;SDS011;70472;47.592;17.640;2023-09-30T03:06:44;9.70;;;9.70;;
81006;SDS011;70472;47.592;17.640;2023-09-30T03:07:20;9.70;;;9.70;;
81006;SDS011;70472;47.592;17.640;2023-09-30T03:07:53;9.87;;;9.87;;
81006;SDS011;70472;47.592;17.640;2023-09-30T03:08:26;9.53;;;9.53;;
81006;SDS011;70472;47.592;17.640;2023-09-30T03:08:58;9.57;;;9.57;;
81006;SDS011;70472;47.592;17.640;2023-09-30T03:09:31;9.90;;;9.90;;
81006;SDS011;70472;47.592;17.640;2023-09-30T03:10:03;9.53;;;9.53;;
81006;SDS011;70472;47.592;17.640;2023-09-30T03:10:36;9.83;;;9.83;;
81006;SDS011;70472;47.592;17.640;2023-09-30T03:11:09;10.17;;;10.17;;
81006;SDS011;70472;47.592;17.640;2023-09-30T03:11:43;9.60;;;9.60;;
81006;SDS011;70472;47.592;17.640;2023-09-30T03:12:17;10.00;;;10.00;;
81006;SDS011;70472;47.592;17.640;2023-09-30T03:12:50;9.70;;;9.70;;
81006;SDS011;70472;47.592;17.640;2023-09-30T03:13:22;10.50;;;10.50;;
81006;SDS011;70472;47.592;17.640;2023-09-30T03:13:55;10.13;;;10.13;;
81006;SDS011;70472;47.592;17.640;2023-09-30T03:14:27;10.27;;;10.27;;
81006;SDS011;70472;47.592;17.640;2023-09-30T03:15:00;10.87;;;10.87;;
81006;SDS011;70472;47.592;17.640;2023-09-30T03:15:33;10.60;;;10.60;;
81006;SDS011;70472;47.592;17.640;2023-09-30T03:16:05;10.63;;;10.63;;